Datum Uhrzeit Temperatur Luft Windgeschw. Regen Regen (1h) Temp (1h) Luftdruck Windrichtung Taupunkt Sensor
2020-04-03 12:24:00 9.1 79.0 0.0 0.0 0.0 1.8 0.0 Kombisensor
2020-04-03 12:22:00 9.9 79.0 0.0 0.0 0.0 3.2 0.0 Kombisensor
2020-04-03 12:19:00 9.3 79.0 0.0 0.0 0.0 1.3 0.0 Kombisensor
2020-04-03 12:16:00 8.1 79.0 0.0 0.0 0.0 -0.5 0.0 Kombisensor
2020-04-03 12:14:00 8.0 79.0 0.0 0.0 0.0 -0.6 0.0 Kombisensor
2020-04-03 12:14:00 8.0 79.0 0.0 0.0 0.0 -0.6 0.0 Kombisensor
2020-04-03 12:11:00 8.3 79.0 0.0 0.0 0.0 -0.5 0.0 Kombisensor
2020-04-03 12:09:00 8.4 79.0 0.0 0.0 0.0 -0.4 0.0 Kombisensor
2020-04-03 12:08:00 8.4 79.0 0.0 0.0 0.0 -0.2 0.0 Kombisensor
2020-04-03 12:05:00 8.0 79.0 0.0 0.0 0.0 -0.4 0.0 Kombisensor
2020-04-03 12:04:00 8.0 79.0 0.0 0.0 0.0 -0.4 0.0 Kombisensor
2020-04-03 12:02:00 8.6 79.0 0.0 0.0 0.0 0.7 0.0 Kombisensor
2020-04-03 11:59:00 8.5 79.0 0.0 0.0 0.0 0.6 0.0 Kombisensor
2020-04-03 11:59:00 8.5 79.0 0.0 0.0 0.0 0.6 0.0 Kombisensor
2020-04-03 11:56:00 8.2 79.0 0.0 0.0 0.0 0.1 0.0 Kombisensor
2020-04-03 11:54:00 8.6 79.0 0.0 0.0 0.0 0.8 0.0 Kombisensor
2020-04-03 11:53:00 8.6 79.0 0.0 0.0 0.0 0.8 0.0 Kombisensor
2020-04-03 11:49:00 7.7 79.0 0.0 0.0 0.0 0.5 0.0 Kombisensor
2020-04-03 11:47:00 7.7 79.0 0.0 0.0 0.0 0.5 0.0 Kombisensor
2020-04-03 11:44:00 7.0 79.0 0.0 0.0 0.0 -0.4 0.0 Kombisensor
2020-04-03 11:44:00 7.0 79.0 0.0 0.0 0.0 -0.4 0.0 Kombisensor
2020-04-03 11:41:00 7.1 79.0 0.0 0.0 0.0 -0.1 0.0 Kombisensor
2020-04-03 11:39:00 7.1 79.0 0.0 0.0 0.0 -0.1 0.0 Kombisensor
2020-04-03 11:38:00 7.1 79.0 0.0 0.0 0.0 -0.1 0.0 Kombisensor
2020-04-03 11:35:00 6.4 79.0 0.0 0.0 0.0 -0.4 0.0 Kombisensor
2020-04-03 11:35:00 6.4 79.0 0.0 0.0 0.0 -0.4 0.0 Kombisensor
2020-04-03 11:32:00 6.1 79.0 0.0 0.0 0.0 -0.9 0.0 Kombisensor
2020-04-03 11:30:00 6.6 79.0 0.0 0.0 0.0 -0.2 0.0 Kombisensor
2020-04-03 11:29:00 6.6 79.0 0.0 0.0 0.0 -0.2 0.0 Kombisensor
2020-04-03 11:27:00 7.7 79.0 0.0 0.0 0.0 0.9 0.0 Kombisensor
2020-04-03 11:24:00 7.3 79.0 0.0 0.0 0.0 0.5 0.0 Kombisensor
2020-04-03 11:24:00 7.3 79.0 0.0 0.0 0.0 0.5 0.0 Kombisensor
2020-04-03 11:21:00 6.7 79.0 0.0 0.0 0.0 -0.3 0.0 Kombisensor
2020-04-03 11:19:00 8.0 79.0 0.0 0.0 0.0 1.0 0.0 Kombisensor
2020-04-03 11:18:00 8.0 79.0 0.0 0.0 0.0 1.2 0.0 Kombisensor
2020-04-03 11:15:00 8.6 79.0 0.0 0.0 0.0 1.8 0.0 Kombisensor
2020-04-03 11:14:00 8.6 79.0 0.0 0.0 0.0 1.8 0.0 Kombisensor
2020-04-03 11:12:00 9.1 79.0 0.0 0.0 0.0 2.3 0.0 Kombisensor
2020-04-03 11:09:00 8.8 79.0 0.0 0.0 0.0 2.2 0.0 Kombisensor
2020-04-03 11:09:00 8.8 79.0 0.0 0.0 0.0 2.2 0.0 Kombisensor
2020-04-03 11:06:00 8.6 79.0 0.0 0.0 0.0 2.4 0.0 Kombisensor
2020-04-03 11:04:00 8.4 79.0 0.0 0.0 0.0 2.4 0.0 Kombisensor
2020-04-03 11:03:00 8.4 79.0 0.0 0.0 0.0 2.4 0.0 Kombisensor
2020-04-03 11:00:00 7.9 79.0 0.0 0.0 0.0 2.2 0.0 Kombisensor
2020-04-03 10:59:00 7.9 79.0 0.0 0.0 0.0 2.2 0.0 Kombisensor
2020-04-03 10:57:00 8.1 79.0 0.0 0.0 0.0 2.6 0.0 Kombisensor
2020-04-03 10:54:00 7.8 79.0 0.0 0.0 0.0 2.5 0.0 Kombisensor
2020-04-03 10:54:00 7.8 79.0 0.0 0.0 0.0 2.5 0.0 Kombisensor
2020-04-03 10:51:00 7.5 79.0 0.0 0.0 0.0 2.4 0.0 Kombisensor
2020-04-03 10:49:00 7.2 79.0 0.0 0.0 0.0 2.1 0.0 Kombisensor
2020-04-03 10:48:00 7.2 79.0 0.0 0.0 0.0 2.1 0.0 Kombisensor
2020-04-03 10:46:00 7.1 79.0 0.0 0.0 0.0 2.6 0.0 Kombisensor
2020-04-03 10:44:00 7.4 79.0 0.0 0.0 0.0 2.9 0.0 Kombisensor
2020-04-03 10:43:00 7.4 79.0 0.0 0.0 0.0 3.3 0.0 Kombisensor
2020-04-03 10:40:00 7.2 79.0 0.0 0.0 0.0 3.7 0.0 Kombisensor
2020-04-03 10:39:00 7.2 79.0 0.0 0.0 0.0 3.7 0.0 Kombisensor
2020-04-03 10:37:00 7.1 79.0 0.0 0.0 0.0 3.9 0.0 Kombisensor
2020-04-03 10:34:00 6.8 79.0 0.0 0.0 0.0 3.6 0.0 Kombisensor
2020-04-03 10:34:00 6.8 79.0 0.0 0.0 0.0 3.7 0.0 Kombisensor
2020-04-03 10:31:00 7.0 79.0 0.0 0.0 0.0 3.9 0.0 Kombisensor
2020-04-03 10:29:00 6.8 79.0 0.0 0.0 0.0 3.7 0.0 Kombisensor
2020-04-03 10:28:00 6.8 79.0 0.0 0.0 0.0 3.7 0.0 Kombisensor
2020-04-03 10:25:00 6.8 79.0 0.0 0.0 0.0 3.4 0.0 Kombisensor
2020-04-03 10:24:00 6.8 79.0 0.0 0.0 0.0 0.1 0.0 Kombisensor
2020-04-03 10:22:00 6.9 79.0 0.0 0.0 0.0 0.2 0.0 Kombisensor
2020-04-03 10:19:00 7.0 79.0 0.0 0.0 0.0 1.2 0.0 Kombisensor
2020-04-03 10:19:00 7.0 79.0 0.0 0.0 0.0 1.2 0.0 Kombisensor
2020-04-03 10:19:00 7.0 79.0 0.0 0.0 0.0 1.2 0.0 Kombisensor
2020-04-03 10:16:00 6.8 79.0 0.0 0.0 0.0 1.4 0.0 Kombisensor
2020-04-03 10:14:00 6.8 79.0 0.0 0.0 0.0 1.6 0.0 Kombisensor
2020-04-03 10:13:00 6.8 79.0 0.0 0.0 0.0 1.6 0.0 Kombisensor
2020-04-03 10:10:00 6.6 79.0 0.0 0.0 0.0 1.5 0.0 Kombisensor
2020-04-03 10:09:00 6.2 79.0 0.0 0.0 0.0 1.1 0.0 Kombisensor
2020-04-03 10:07:00 6.2 79.0 0.0 0.0 0.0 1.5 0.0 Kombisensor
2020-04-03 10:04:00 6.0 79.0 0.0 0.0 0.0 1.1 0.0 Kombisensor
2020-04-03 10:04:00 6.0 79.0 0.0 0.0 0.0 1.1 0.0 Kombisensor
2020-04-03 10:02:00 5.8 79.0 0.0 0.0 0.0 0.6 0.0 Kombisensor
2020-04-03 09:59:00 5.7 79.0 0.0 0.0 0.0 0.5 0.0 Kombisensor
2020-04-03 09:59:00 5.7 79.0 0.0 0.0 0.0 0.5 0.0 Kombisensor
2020-04-03 09:56:00 5.5 79.0 0.0 0.0 0.0 0.7 0.0 Kombisensor
2020-04-03 09:54:00 5.3 79.0 0.0 0.0 0.0 0.5 0.0 Kombisensor
2020-04-03 09:53:00 5.3 79.0 0.0 0.0 0.0 0.2 0.0 Kombisensor
2020-04-03 09:50:00 5.1 79.0 0.0 0.0 0.0 -0.3 0.0 Kombisensor
2020-04-03 09:49:00 5.1 79.0 0.0 0.0 0.0 -0.3 0.0 Kombisensor
2020-04-03 09:47:00 4.9 79.0 0.0 0.0 0.0 -0.4 0.0 Kombisensor
2020-04-03 09:44:00 4.5 79.0 0.0 0.0 0.0 -0.8 0.0 Kombisensor
2020-04-03 09:44:00 4.5 79.0 0.0 0.0 0.0 -0.8 0.0 Kombisensor
2020-04-03 09:41:00 4.1 79.0 0.0 0.0 0.0 -0.7 0.0 Kombisensor
2020-04-03 09:39:00 3.5 79.0 0.0 0.0 0.0 -0.8 0.0 Kombisensor
2020-04-03 09:38:00 3.5 79.0 0.0 0.0 0.0 -0.8 0.0 Kombisensor
2020-04-03 09:35:00 3.2 79.0 0.0 0.0 0.0 -2.0 0.0 Kombisensor
2020-04-03 09:34:00 3.1 79.0 0.0 0.0 0.0 -3.1 0.0 Kombisensor
2020-04-03 09:32:00 3.1 79.0 0.0 0.0 0.0 -2.9 0.0 Kombisensor
2020-04-03 09:29:00 3.1 79.0 0.0 0.0 0.0 -1.9 0.0 Kombisensor
2020-04-03 09:29:00 3.1 79.0 0.0 0.0 0.0 -1.9 0.0 Kombisensor
2020-04-03 09:26:00 3.4 79.0 0.0 0.0 0.0 -0.9 0.0 Kombisensor
2020-04-03 09:24:00 6.7 79.0 0.0 0.0 0.0 2.4 0.0 Kombisensor
2020-04-03 09:23:00 6.7 79.0 0.0 0.0 0.0 2.4 0.0 Kombisensor
2020-04-03 09:20:00 5.8 79.0 0.0 0.0 0.0 2.4 0.0 Kombisensor
2020-04-03 09:19:00 5.4 79.0 0.0 0.0 0.0 2.0 0.0 Kombisensor
2020-04-03 09:17:00 5.4 79.0 0.0 0.0 0.0 2.0 0.0 Kombisensor
2020-04-03 09:15:00 5.2 79.0 0.0 0.0 0.0 1.8 0.0 Kombisensor
2020-04-03 09:14:00 5.2 79.0 0.0 0.0 0.0 1.8 0.0 Kombisensor
2020-04-03 09:12:00 5.3 79.0 0.0 0.0 0.0 1.8 0.0 Kombisensor
2020-04-03 09:09:00 5.1 79.0 0.0 0.0 0.0 1.6 0.0 Kombisensor
2020-04-03 09:09:00 5.1 79.0 0.0 0.0 0.0 1.5 0.0 Kombisensor
2020-04-03 09:06:00 4.7 79.0 0.0 0.0 0.0 0.8 0.0 Kombisensor
2020-04-03 09:04:00 4.9 79.0 0.0 0.0 0.0 1.0 0.0 Kombisensor
2020-04-03 09:03:00 4.9 79.0 0.0 0.0 0.0 1.0 0.0 Kombisensor
2020-04-03 09:00:00 5.2 79.0 0.0 0.0 0.0 0.9 0.0 Kombisensor
2020-04-03 09:00:00 5.2 79.0 0.0 0.0 0.0 0.9 0.0 Kombisensor
2020-04-03 08:59:00 5.2 79.0 0.0 0.0 0.0 1.3 0.0 Kombisensor
2020-04-03 08:57:00 5.3 79.0 0.0 0.0 0.0 1.4 0.0 Kombisensor
2020-04-03 08:54:00 4.8 79.0 0.0 0.0 0.0 1.6 0.0 Kombisensor
2020-04-03 08:54:00 4.8 79.0 0.0 0.0 0.0 1.6 0.0 Kombisensor
2020-04-03 08:51:00 5.1 79.0 0.0 0.0 0.0 2.5 0.0 Kombisensor
2020-04-03 08:49:00 5.4 79.0 0.0 0.0 0.0 2.8 0.0 Kombisensor
2020-04-03 08:48:00 5.4 79.0 0.0 0.0 0.0 2.8 0.0 Kombisensor
2020-04-03 08:45:00 5.3 79.0 0.0 0.0 0.0 2.7 0.0 Kombisensor
2020-04-03 08:44:00 4.8 79.0 0.0 0.0 0.0 2.2 0.0 Kombisensor
2020-04-03 08:42:00 4.8 79.0 0.0 0.0 0.0 2.0 0.0 Kombisensor
2020-04-03 08:39:00 4.3 79.0 0.0 0.0 0.0 1.5 0.0 Kombisensor
2020-04-03 08:39:00 4.3 79.0 0.0 0.0 0.0 1.5 0.0 Kombisensor
2020-04-03 08:36:00 5.2 79.0 0.0 0.0 0.0 2.6 0.0 Kombisensor
2020-04-03 08:34:00 6.2 79.0 0.0 0.0 0.0 3.6 0.0 Kombisensor
2020-04-03 08:34:00 6.2 79.0 0.0 0.0 0.0 3.6 0.0 Kombisensor
2020-04-03 08:31:00 6.0 79.0 0.0 0.0 0.0 3.6 0.0 Kombisensor
2020-04-03 08:29:00 5.0 79.0 0.0 0.0 0.0 2.6 0.0 Kombisensor
2020-04-03 08:28:00 5.0 79.0 0.0 0.0 0.0 2.7 0.0 Kombisensor
2020-04-03 08:25:00 4.3 79.0 0.0 0.0 0.0 2.0 0.0 Kombisensor
2020-04-03 08:24:00 4.3 79.0 0.0 0.0 0.0 2.0 0.0 Kombisensor
2020-04-03 08:22:00 4.7 79.0 0.0 0.0 0.0 2.4 0.0 Kombisensor
2020-04-03 08:19:00 3.4 79.0 0.0 0.0 0.0 1.1 0.0 Kombisensor
2020-04-03 08:19:00 3.4 79.0 0.0 0.0 0.0 1.1 0.0 Kombisensor
2020-04-03 08:16:00 3.4 79.0 0.0 0.0 0.0 1.1 0.0 Kombisensor
2020-04-03 08:14:00 3.4 79.0 0.0 0.0 0.0 1.3 0.0 Kombisensor
2020-04-03 08:13:00 3.4 79.0 0.0 0.0 0.0 1.3 0.0 Kombisensor
2020-04-03 08:10:00 3.5 79.0 0.0 0.0 0.0 1.5 0.0 Kombisensor
2020-04-03 08:09:00 3.6 79.0 0.0 0.0 0.0 1.5 0.0 Kombisensor
2020-04-03 08:07:00 3.6 79.0 0.0 0.0 0.0 1.5 0.0 Kombisensor
2020-04-03 08:04:00 3.9 79.0 0.0 0.0 0.0 1.8 0.0 Kombisensor
2020-04-03 08:04:00 3.9 79.0 0.0 0.0 0.0 1.8 0.0 Kombisensor
2020-04-03 08:01:00 4.3 79.0 0.0 0.0 0.0 2.4 0.0 Kombisensor
2020-04-03 07:59:00 3.9 79.0 0.0 0.0 0.0 2.0 0.0 Kombisensor
2020-04-03 07:58:00 3.9 79.0 0.0 0.0 0.0 2.0 0.0 Kombisensor
2020-04-03 07:55:00 3.2 79.0 0.0 0.0 0.0 1.3 0.0 Kombisensor
2020-04-03 07:54:00 2.6 79.0 0.0 0.0 0.0 0.7 0.0 Kombisensor
2020-04-03 07:52:00 2.6 79.0 0.0 0.0 0.0 0.9 0.0 Kombisensor
2020-04-03 07:49:00 2.6 79.0 0.0 0.0 0.0 0.8 0.0 Kombisensor
2020-04-03 07:49:00 2.6 79.0 0.0 0.0 0.0 0.8 0.0 Kombisensor
2020-04-03 07:47:00 2.6 79.0 0.0 0.0 0.0 0.9 0.0 Kombisensor
2020-04-03 07:44:00 2.6 79.0 0.0 0.0 0.0 0.9 0.0 Kombisensor
2020-04-03 07:44:00 2.6 79.0 0.0 0.0 0.0 0.9 0.0 Kombisensor
2020-04-03 07:44:00 2.6 79.0 0.0 0.0 0.0 0.9 0.0 Kombisensor
2020-04-03 07:39:00 2.8 79.0 0.0 0.0 0.0 1.0 0.0 Kombisensor
2020-04-03 07:38:00 2.8 79.0 0.0 0.0 0.0 1.1 0.0 Kombisensor
2020-04-03 07:35:00 2.6 79.0 0.0 0.0 0.0 0.8 0.0 Kombisensor
2020-04-03 07:34:00 2.6 79.0 0.0 0.0 0.0 0.8 0.0 Kombisensor
2020-04-03 07:32:00 2.6 79.0 0.0 0.0 0.0 0.8 0.0 Kombisensor
2020-04-03 07:29:00 2.4 79.0 0.0 0.0 0.0 0.7 0.0 Kombisensor
2020-04-03 07:29:00 2.4 79.0 0.0 0.0 0.0 0.7 0.0 Kombisensor
2020-04-03 07:26:00 2.3 79.0 0.0 0.0 0.0 0.6 0.0 Kombisensor
2020-04-03 07:24:00 2.3 79.0 0.0 0.0 0.0 0.1 0.0 Kombisensor
2020-04-03 07:23:00 2.3 79.0 0.0 0.0 0.0 0.1 0.0 Kombisensor
2020-04-03 07:20:00 2.3 79.0 0.0 0.0 0.0 -0.6 0.0 Kombisensor
2020-04-03 07:19:00 2.3 79.0 0.0 0.0 0.0 -0.7 0.0 Kombisensor
2020-04-03 07:17:00 2.3 79.0 0.0 0.0 0.0 -0.7 0.0 Kombisensor
2020-04-03 07:14:00 2.1 79.0 0.0 0.0 0.0 -0.6 0.0 Kombisensor
2020-04-03 07:14:00 2.1 79.0 0.0 0.0 0.0 -0.6 0.0 Kombisensor
2020-04-03 07:11:00 2.0 79.0 0.0 0.0 0.0 -0.6 0.0 Kombisensor
2020-04-03 07:09:00 2.1 79.0 0.0 0.0 0.0 -0.5 0.0 Kombisensor
2020-04-03 07:08:00 2.1 79.0 0.0 0.0 0.0 -0.5 0.0 Kombisensor
2020-04-03 07:05:00 2.1 79.0 0.0 0.0 0.0 -0.5 0.0 Kombisensor
2020-04-03 07:04:00 1.9 79.0 0.0 0.0 0.0 -0.7 0.0 Kombisensor
2020-04-03 07:03:00 1.9 79.0 0.0 0.0 0.0 -0.7 0.0 Kombisensor
2020-04-03 07:00:00 1.9 79.0 0.0 0.0 0.0 -0.6 0.0 Kombisensor
2020-04-03 06:59:00 1.9 79.0 0.0 0.0 0.0 -0.6 0.0 Kombisensor
2020-04-03 06:57:00 1.8 79.0 0.0 0.0 0.0 -0.7 0.0 Kombisensor
2020-04-03 06:54:00 1.9 79.0 0.0 0.0 0.0 -0.6 0.0 Kombisensor
2020-04-03 06:54:00 1.9 79.0 0.0 0.0 0.0 -0.6 0.0 Kombisensor
2020-04-03 06:51:00 1.7 79.0 0.0 0.0 0.0 -0.9 0.0 Kombisensor
2020-04-03 06:49:00 1.8 79.0 0.0 0.0 0.0 -0.8 0.0 Kombisensor
2020-04-03 06:48:00 1.8 79.0 0.0 0.0 0.0 -0.8 0.0 Kombisensor
2020-04-03 06:45:00 1.7 79.0 0.0 0.0 0.0 -1.0 0.0 Kombisensor
2020-04-03 06:44:00 1.7 79.0 0.0 0.0 0.0 -1.0 0.0 Kombisensor
2020-04-03 06:42:00 1.7 79.0 0.0 0.0 0.0 -1.0 0.0 Kombisensor
2020-04-03 06:39:00 1.8 79.0 0.0 0.0 0.0 -0.9 0.0 Kombisensor
2020-04-03 06:39:00 1.8 79.0 0.0 0.0 0.0 -0.9 0.0 Kombisensor
2020-04-03 06:36:00 1.7 79.0 0.0 0.0 0.0 -1.1 0.0 Kombisensor
2020-04-03 06:34:00 1.8 79.0 0.0 0.0 0.0 -0.8 0.0 Kombisensor
2020-04-03 06:33:00 1.8 79.0 0.0 0.0 0.0 -0.8 0.0 Kombisensor
2020-04-03 06:30:00 1.7 79.0 0.0 0.0 0.0 -0.9 0.0 Kombisensor
2020-04-03 06:29:00 1.7 79.0 0.0 0.0 0.0 -0.9 0.0 Kombisensor
2020-04-03 06:27:00 1.7 79.0 0.0 0.0 0.0 -0.8 0.0 Kombisensor
2020-04-03 06:24:00 2.2 79.0 0.0 0.0 0.0 -0.3 0.0 Kombisensor
2020-04-03 06:24:00 2.2 79.0 0.0 0.0 0.0 -0.3 0.0 Kombisensor
2020-04-03 06:21:00 2.9 79.0 0.0 0.0 0.0 0.4 0.0 Kombisensor
2020-04-03 06:21:00 3.0 79.0 0.0 0.0 0.0 0.5 0.0 Kombisensor
2020-04-03 06:19:00 3.0 79.0 0.0 0.0 0.0 0.5 0.0 Kombisensor
2020-04-03 06:18:00 3.0 79.0 0.0 0.0 0.0 0.6 0.0 Kombisensor
2020-04-03 06:16:00 2.8 79.0 0.0 0.0 0.0 0.4 0.0 Kombisensor
2020-04-03 06:14:00 2.7 79.0 0.0 0.0 0.0 0.3 0.0 Kombisensor
2020-04-03 06:13:00 2.7 79.0 0.0 0.0 0.0 0.2 0.0 Kombisensor
2020-04-03 06:10:00 2.6 79.0 0.0 0.0 0.0 0.1 0.0 Kombisensor
2020-04-03 06:09:00 2.6 79.0 0.0 0.0 0.0 0.1 0.0 Kombisensor
2020-04-03 06:07:00 2.6 79.0 0.0 0.0 0.0 0.0 0.0 Kombisensor
2020-04-03 06:04:00 2.6 79.0 0.0 0.0 0.0 0.0 0.0 Kombisensor
2020-04-03 06:04:00 2.6 79.0 0.0 0.0 0.0 0.0 0.0 Kombisensor
2020-04-03 06:01:00 2.6 79.0 0.0 0.0 0.0 -0.2 0.0 Kombisensor
2020-04-03 05:59:00 2.5 79.0 0.0 0.0 0.0 -0.1 0.0 Kombisensor
2020-04-03 05:58:00 2.5 79.0 0.0 0.0 0.0 -0.1 0.0 Kombisensor
2020-04-03 05:55:00 2.5 79.0 0.0 0.0 0.0 0.1 0.0 Kombisensor
2020-04-03 05:54:00 2.5 79.0 0.0 0.0 0.0 0.1 0.0 Kombisensor
2020-04-03 05:52:00 2.5 79.0 0.0 0.0 0.0 0.1 0.0 Kombisensor
2020-04-03 05:49:00 2.6 79.0 0.0 0.0 0.0 0.3 0.0 Kombisensor
2020-04-03 05:49:00 2.6 79.0 0.0 0.0 0.0 0.3 0.0 Kombisensor
2020-04-03 05:46:00 2.7 79.0 0.0 0.0 0.0 0.4 0.0 Kombisensor
2020-04-03 05:44:00 2.7 79.0 0.0 0.0 0.0 0.4 0.0 Kombisensor
2020-04-03 05:43:00 2.7 79.0 0.0 0.0 0.0 0.4 0.0 Kombisensor
2020-04-03 05:40:00 2.7 79.0 0.0 0.0 0.0 0.7 0.0 Kombisensor
2020-04-03 05:39:00 2.7 79.0 0.0 0.0 0.0 0.7 0.0 Kombisensor
2020-04-03 05:37:00 2.8 79.0 0.0 0.0 0.0 0.8 0.0 Kombisensor
2020-04-03 05:35:00 2.6 79.0 0.0 0.0 0.0 0.6 0.0 Kombisensor
2020-04-03 05:34:00 2.6 79.0 0.0 0.0 0.0 0.6 0.0 Kombisensor
2020-04-03 05:32:00 2.6 79.0 0.0 0.0 0.0 0.7 0.0 Kombisensor
2020-04-03 05:29:00 2.6 79.0 0.0 0.0 0.0 0.7 0.0 Kombisensor
2020-04-03 05:29:00 2.4 79.0 0.0 0.0 0.0 0.5 0.0 Kombisensor
2020-04-03 05:26:00 2.5 79.0 0.0 0.0 0.0 0.4 0.0 Kombisensor
2020-04-03 05:24:00 2.5 79.0 0.0 0.0 0.0 0.4 0.0 Kombisensor
2020-04-03 05:23:00 2.4 79.0 0.0 0.0 0.0 -1.1 0.0 Kombisensor
2020-04-03 05:20:00 2.5 79.0 0.0 0.0 0.0 -1.0 0.0 Kombisensor
2020-04-03 05:20:00 2.5 79.0 0.0 0.0 0.0 -1.0 0.0 Kombisensor
2020-04-03 05:17:00 2.4 79.0 0.0 0.0 0.0 -1.2 0.0 Kombisensor
2020-04-03 05:14:00 2.4 79.0 0.0 0.0 0.0 -1.1 0.0 Kombisensor
2020-04-03 05:14:00 2.7 79.0 0.0 0.0 0.0 -0.8 0.0 Kombisensor
2020-04-03 05:11:00 2.5 79.0 0.0 0.0 0.0 -0.8 0.0 Kombisensor
2020-04-03 05:10:00 2.5 79.0 0.0 0.0 0.0 -0.7 0.0 Kombisensor
2020-04-03 05:08:00 2.5 79.0 0.0 0.0 0.0 -0.7 0.0 Kombisensor
2020-04-03 05:05:00 2.6 79.0 0.0 0.0 0.0 -0.4 0.0 Kombisensor
2020-04-03 05:04:00 2.6 79.0 0.0 0.0 0.0 -0.4 0.0 Kombisensor
2020-04-03 05:02:00 2.8 79.0 0.0 0.0 0.0 0.0 0.0 Kombisensor
2020-04-03 04:59:00 2.6 79.0 0.0 0.0 0.0 -0.2 0.0 Kombisensor
2020-04-03 04:59:00 2.6 79.0 0.0 0.0 0.0 -0.2 0.0 Kombisensor
2020-04-03 04:56:00 2.4 79.0 0.0 0.0 0.0 -0.5 0.0 Kombisensor
2020-04-03 04:54:00 2.4 79.0 0.0 0.0 0.0 -0.5 0.0 Kombisensor
2020-04-03 04:53:00 2.4 79.0 0.0 0.0 0.0 -0.5 0.0 Kombisensor
2020-04-03 04:51:00 2.3 79.0 0.0 0.0 0.0 -0.7 0.0 Kombisensor
2020-04-03 04:49:00 2.3 79.0 0.0 0.0 0.0 -0.7 0.0 Kombisensor
2020-04-03 04:48:00 2.2 79.0 0.0 0.0 0.0 -0.9 0.0 Kombisensor
2020-04-03 04:45:00 2.3 79.0 0.0 0.0 0.0 -0.8 0.0 Kombisensor
2020-04-03 04:44:00 2.3 79.0 0.0 0.0 0.0 -0.8 0.0 Kombisensor
2020-04-03 04:42:00 2.0 79.0 0.0 0.0 0.0 -1.1 0.0 Kombisensor
2020-04-03 04:39:00 2.0 79.0 0.0 0.0 0.0 -1.1 0.0 Kombisensor
2020-04-03 04:39:00 2.1 79.0 0.0 0.0 0.0 -1.0 0.0 Kombisensor
2020-04-03 04:36:00 2.0 79.0 0.0 0.0 0.0 -1.0 0.0 Kombisensor
2020-04-03 04:34:00 2.0 79.0 0.0 0.0 0.0 -1.2 0.0 Kombisensor
2020-04-03 04:33:00 1.9 79.0 0.0 0.0 0.0 -1.3 0.0 Kombisensor
2020-04-03 04:33:00 1.9 79.0 0.0 0.0 0.0 -1.3 0.0 Kombisensor
2020-04-03 04:30:00 1.9 79.0 0.0 0.0 0.0 -1.2 0.0 Kombisensor
2020-04-03 04:29:00 1.9 79.0 0.0 0.0 0.0 -1.2 0.0 Kombisensor
2020-04-03 04:27:00 2.1 79.0 0.0 0.0 0.0 -1.0 0.0 Kombisensor
2020-04-03 04:24:00 2.1 79.0 0.0 0.0 0.0 -1.1 0.0 Kombisensor
2020-04-03 04:24:00 2.5 79.0 0.0 0.0 0.0 -0.7 0.0 Kombisensor
2020-04-03 04:21:00 3.5 79.0 0.0 0.0 0.0 0.4 0.0 Kombisensor
2020-04-03 04:19:00 3.5 79.0 0.0 0.0 0.0 0.4 0.0 Kombisensor
2020-04-03 04:18:00 3.6 79.0 0.0 0.0 0.0 0.5 0.0 Kombisensor
2020-04-03 04:16:00 3.5 79.0 0.0 0.0 0.0 0.4 0.0 Kombisensor
2020-04-03 04:14:00 3.5 79.0 0.0 0.0 0.0 0.4 0.0 Kombisensor
2020-04-03 04:12:00 3.3 79.0 0.0 0.0 0.0 0.2 0.0 Kombisensor
2020-04-03 04:09:00 3.2 79.0 0.0 0.0 0.0 0.1 0.0 Kombisensor
2020-04-03 04:09:00 3.2 79.0 0.0 0.0 0.0 0.1 0.0 Kombisensor
2020-04-03 04:07:00 3.0 79.0 0.0 0.0 0.0 0.1 0.0 Kombisensor
2020-04-03 04:04:00 3.0 79.0 0.0 0.0 0.0 0.1 0.0 Kombisensor
2020-04-03 04:04:00 2.9 79.0 0.0 0.0 0.0 0.0 0.0 Kombisensor
2020-04-03 04:01:00 2.8 79.0 0.0 0.0 0.0 0.2 0.0 Kombisensor
2020-04-03 03:59:00 2.8 79.0 0.0 0.0 0.0 0.2 0.0 Kombisensor
2020-04-03 03:58:00 2.8 79.0 0.0 0.0 0.0 0.3 0.0 Kombisensor
2020-04-03 03:55:00 2.9 79.0 0.0 0.0 0.0 0.4 0.0 Kombisensor
2020-04-03 03:54:00 2.9 79.0 0.0 0.0 0.0 0.4 0.0 Kombisensor
2020-04-03 03:52:00 3.0 79.0 0.0 0.0 0.0 0.5 0.0 Kombisensor
2020-04-03 03:49:00 3.0 79.0 0.0 0.0 0.0 0.5 0.0 Kombisensor
2020-04-03 03:49:00 3.0 79.0 0.0 0.0 0.0 0.5 0.0 Kombisensor
2020-04-03 03:46:00 3.1 79.0 0.0 0.0 0.0 0.6 0.0 Kombisensor
2020-04-03 03:44:00 3.1 79.0 0.0 0.0 0.0 0.5 0.0 Kombisensor
2020-04-03 03:43:00 3.1 79.0 0.0 0.0 0.0 0.5 0.0 Kombisensor
2020-04-03 03:40:00 3.1 79.0 0.0 0.0 0.0 0.8 0.0 Kombisensor
2020-04-03 03:39:00 3.1 79.0 0.0 0.0 0.0 0.8 0.0 Kombisensor
2020-04-03 03:37:00 3.0 79.0 0.0 0.0 0.0 0.8 0.0 Kombisensor
2020-04-03 03:34:00 3.2 79.0 0.0 0.0 0.0 1.0 0.0 Kombisensor
2020-04-03 03:34:00 3.2 79.0 0.0 0.0 0.0 1.0 0.0 Kombisensor
2020-04-03 03:31:00 3.1 79.0 0.0 0.0 0.0 0.2 0.0 Kombisensor
2020-04-03 03:29:00 3.1 79.0 0.0 0.0 0.0 0.2 0.0 Kombisensor
2020-04-03 03:28:00 3.1 79.0 0.0 0.0 0.0 0.2 0.0 Kombisensor
2020-04-03 03:26:00 3.2 79.0 0.0 0.0 0.0 0.6 0.0 Kombisensor
2020-04-03 03:24:00 3.2 79.0 0.0 0.0 0.0 0.6 0.0 Kombisensor
2020-04-03 03:23:00 3.2 79.0 0.0 0.0 0.0 0.7 0.0 Kombisensor
2020-04-03 03:20:00 3.1 79.0 0.0 0.0 0.0 0.6 0.0 Kombisensor
2020-04-03 03:19:00 3.1 79.0 0.0 0.0 0.0 0.6 0.0 Kombisensor
2020-04-03 03:17:00 3.1 79.0 0.0 0.0 0.0 0.9 0.0 Kombisensor
2020-04-03 03:14:00 3.1 79.0 0.0 0.0 0.0 0.9 0.0 Kombisensor
2020-04-03 03:14:00 3.0 79.0 0.0 0.0 0.0 0.8 0.0 Kombisensor
2020-04-03 03:11:00 3.1 79.0 0.0 0.0 0.0 1.1 0.0 Kombisensor
2020-04-03 03:09:00 3.1 79.0 0.0 0.0 0.0 1.1 0.0 Kombisensor
2020-04-03 03:08:00 2.8 79.0 0.0 0.0 0.0 0.8 0.0 Kombisensor
2020-04-03 03:05:00 2.9 79.0 0.0 0.0 0.0 0.9 0.0 Kombisensor
2020-04-03 03:04:00 2.9 79.0 0.0 0.0 0.0 0.9 0.0 Kombisensor
2020-04-03 03:02:00 2.5 79.0 0.0 0.0 0.0 0.2 0.0 Kombisensor
2020-04-03 02:59:00 2.6 79.0 0.0 0.0 0.0 -0.1 0.0 Kombisensor
2020-04-03 02:59:00 2.6 79.0 0.0 0.0 0.0 -0.1 0.0 Kombisensor
2020-04-03 02:56:00 2.5 79.0 0.0 0.0 0.0 -0.8 0.0 Kombisensor
2020-04-03 02:55:00 2.5 79.0 0.0 0.0 0.0 -2.1 0.0 Kombisensor
2020-04-03 02:53:00 2.5 79.0 0.0 0.0 0.0 -2.1 0.0 Kombisensor
2020-04-03 02:50:00 2.5 79.0 0.0 0.0 0.0 -2.1 0.0 Kombisensor
2020-04-03 02:49:00 2.5 79.0 0.0 0.0 0.0 -2.1 0.0 Kombisensor
2020-04-03 02:47:00 2.5 79.0 0.0 0.0 0.0 -1.8 0.0 Kombisensor
2020-04-03 02:44:00 2.6 79.0 0.0 0.0 0.0 -1.7 0.0 Kombisensor
2020-04-03 02:41:00 2.3 79.0 0.0 0.0 0.0 -1.9 0.0 Kombisensor
2020-04-03 02:39:00 2.3 79.0 0.0 0.0 0.0 -1.9 0.0 Kombisensor
2020-04-03 02:39:00 2.2 79.0 0.0 0.0 0.0 -2.0 0.0 Kombisensor
2020-04-03 02:36:00 2.2 79.0 0.0 0.0 0.0 -2.1 0.0 Kombisensor
2020-04-03 02:34:00 2.2 79.0 0.0 0.0 0.0 -2.1 0.0 Kombisensor
2020-04-03 02:33:00 2.7 79.0 0.0 0.0 0.0 -1.7 0.0 Kombisensor
2020-04-03 02:30:00 2.9 79.0 0.0 0.0 0.0 -1.5 0.0 Kombisensor
2020-04-03 02:29:00 2.9 79.0 0.0 0.0 0.0 -1.5 0.0 Kombisensor
2020-04-03 02:27:00 2.8 79.0 0.0 0.0 0.0 -1.7 0.0 Kombisensor
2020-04-03 02:24:00 2.6 79.0 0.0 0.0 0.0 -1.9 0.0 Kombisensor
2020-04-03 02:24:00 2.6 79.0 0.0 0.0 0.0 -1.9 0.0 Kombisensor
2020-04-03 02:21:00 2.5 79.0 0.0 0.0 0.0 -1.9 0.0 Kombisensor
2020-04-03 02:19:00 2.5 79.0 0.0 0.0 0.0 -2.0 0.0 Kombisensor
2020-04-03 02:18:00 2.4 79.0 0.0 0.0 0.0 -2.1 0.0 Kombisensor
2020-04-03 02:15:00 2.2 79.0 0.0 0.0 0.0 -2.5 0.0 Kombisensor
2020-04-03 02:14:00 2.2 79.0 0.0 0.0 0.0 -2.5 0.0 Kombisensor
2020-04-03 02:12:00 2.1 79.0 0.0 0.0 0.0 -2.6 0.0 Kombisensor
2020-04-03 02:09:00 2.0 79.0 0.0 0.0 0.0 -2.7 0.0 Kombisensor
2020-04-03 02:09:00 2.0 79.0 0.0 0.0 0.0 -2.7 0.0 Kombisensor
2020-04-03 02:06:00 2.0 79.0 0.0 0.0 0.0 -2.7 0.0 Kombisensor
2020-04-03 02:04:00 2.0 79.0 0.0 0.0 0.0 -2.7 0.0 Kombisensor
2020-04-03 02:03:00 2.3 79.0 0.0 0.0 0.0 -2.4 0.0 Kombisensor
2020-04-03 02:00:00 2.7 79.0 0.0 0.0 0.0 -2.0 0.0 Kombisensor
2020-04-03 01:59:00 2.7 79.0 0.0 0.0 0.0 -2.0 0.0 Kombisensor
2020-04-03 01:57:00 3.3 79.0 0.0 0.0 0.0 -1.4 0.0 Kombisensor
2020-04-03 01:55:00 4.6 79.0 0.0 0.0 0.0 -0.1 0.0 Kombisensor
2020-04-03 01:54:00 4.6 79.0 0.0 0.0 0.0 -0.1 0.0 Kombisensor
2020-04-03 01:52:00 4.6 79.0 0.0 0.0 0.0 0.3 0.0 Kombisensor
2020-04-03 01:49:00 4.6 79.0 0.0 0.0 0.0 0.3 0.0 Kombisensor
2020-04-03 01:49:00 4.5 79.0 0.0 0.0 0.0 0.2 0.0 Kombisensor
2020-04-03 01:46:00 4.3 79.0 0.0 0.0 0.0 0.3 0.0 Kombisensor
2020-04-03 01:44:00 4.3 79.0 0.0 0.0 0.0 0.3 0.0 Kombisensor
2020-04-03 01:43:00 4.3 79.0 0.0 0.0 0.0 0.4 0.0 Kombisensor
2020-04-03 01:40:00 4.2 79.0 0.0 0.0 0.0 0.3 0.0 Kombisensor
2020-04-03 01:39:00 4.2 79.0 0.0 0.0 0.0 0.3 0.0 Kombisensor
2020-04-03 01:37:00 4.2 79.0 0.0 0.0 0.0 0.3 0.0 Kombisensor
2020-04-03 01:34:00 4.3 79.0 0.0 0.0 0.0 0.5 0.0 Kombisensor
2020-04-03 01:34:00 4.3 79.0 0.0 0.0 0.0 0.5 0.0 Kombisensor
2020-04-03 01:31:00 4.4 79.0 0.0 0.0 0.0 0.4 0.0 Kombisensor
2020-04-03 01:29:00 4.4 79.0 0.0 0.0 0.0 0.1 0.0 Kombisensor
2020-04-03 01:28:00 4.5 79.0 0.0 0.0 0.0 0.2 0.0 Kombisensor
2020-04-03 01:25:00 4.5 79.0 0.0 0.0 0.0 0.4 0.0 Kombisensor
2020-04-03 01:24:00 4.5 79.0 0.0 0.0 0.0 0.4 0.0 Kombisensor
2020-04-03 01:22:00 4.4 79.0 0.0 0.0 0.0 0.7 0.0 Kombisensor
2020-04-03 01:19:00 4.5 79.0 0.0 0.0 0.0 0.8 0.0 Kombisensor
2020-04-03 01:19:00 4.5 79.0 0.0 0.0 0.0 0.8 0.0 Kombisensor
2020-04-03 01:16:00 4.7 79.0 0.0 0.0 0.0 0.7 0.0 Kombisensor
2020-04-03 01:14:00 4.7 79.0 0.0 0.0 0.0 0.7 0.0 Kombisensor
2020-04-03 01:13:00 4.7 79.0 0.0 0.0 0.0 0.7 0.0 Kombisensor
2020-04-03 01:11:00 4.7 79.0 0.0 0.0 0.0 0.6 0.0 Kombisensor
2020-04-03 01:09:00 4.7 79.0 0.0 0.0 0.0 0.6 0.0 Kombisensor
2020-04-03 01:08:00 4.7 79.0 0.0 0.0 0.0 0.6 0.0 Kombisensor
2020-04-03 01:05:00 4.7 79.0 0.0 0.0 0.0 0.6 0.0 Kombisensor
2020-04-03 01:04:00 4.7 79.0 0.0 0.0 0.0 0.6 0.0 Kombisensor
2020-04-03 01:02:00 4.8 79.0 0.0 0.0 0.0 0.5 0.0 Kombisensor
2020-04-03 00:59:00 4.7 79.0 0.0 0.0 0.0 0.4 0.0 Kombisensor
2020-04-03 00:59:00 4.7 79.0 0.0 0.0 0.0 4.7 0.0 Kombisensor
2020-04-03 00:56:00 4.7 79.0 0.0 0.0 0.0 0.0 0.0 Kombisensor
2020-04-03 00:54:00 4.7 79.0 0.0 0.0 0.0 0.3 0.0 Kombisensor
2020-04-03 00:53:00 4.4 79.0 0.0 0.0 0.0 0.1 0.0 Kombisensor
2020-04-03 00:50:00 4.3 79.0 0.0 0.0 0.0 0.0 0.0 Kombisensor
2020-04-03 00:49:00 4.3 79.0 0.0 0.0 0.0 0.3 0.0 Kombisensor
2020-04-03 00:47:00 4.0 79.0 0.0 0.0 0.0 0.0 0.0 Kombisensor
2020-04-03 00:44:00 4.0 79.0 0.0 0.0 0.0 0.0 0.0 Kombisensor
2020-04-03 00:44:00 4.0 79.0 0.0 0.0 0.0 0.1 0.0 Kombisensor
2020-04-03 00:41:00 3.9 79.0 0.0 0.0 0.0 0.0 0.0 Kombisensor
2020-04-03 00:39:00 3.9 79.0 0.0 0.0 0.0 0.0 0.0 Kombisensor
2020-04-03 00:38:00 3.9 79.0 0.0 0.0 0.0 0.1 0.0 Kombisensor
2020-04-03 00:35:00 3.8 79.0 0.0 0.0 0.0 0.0 0.0 Kombisensor
2020-04-03 00:34:00 3.8 79.0 0.0 0.0 0.0 -0.2 0.0 Kombisensor
2020-04-03 00:32:00 4.0 79.0 0.0 0.0 0.0 -0.3 0.0 Kombisensor
2020-04-03 00:29:00 4.3 79.0 0.0 0.0 0.0 0.0 0.0 Kombisensor
2020-04-03 00:29:00 4.3 79.0 0.0 0.0 0.0 0.0 0.0 Kombisensor
2020-04-03 00:27:00 4.3 79.0 0.0 0.0 0.0 0.2 0.0 Kombisensor
2020-04-03 00:24:00 4.1 79.0 0.0 0.0 0.0 0.0 0.0 Kombisensor
2020-04-03 00:24:00 4.1 79.0 0.0 0.0 0.0 0.4 0.0 Kombisensor
2020-04-03 00:21:00 3.7 79.0 0.0 0.0 0.0 0.0 0.0 Kombisensor
2020-04-03 00:19:00 3.7 79.0 0.0 0.0 0.0 -0.3 0.0 Kombisensor
2020-04-03 00:18:00 4.0 79.0 0.0 0.0 0.0 0.0 0.0 Kombisensor
2020-04-03 00:15:00 4.0 79.0 0.0 0.0 0.0 0.0 0.0 Kombisensor
2020-04-03 00:14:00 4.0 79.0 0.0 0.0 0.0 -0.1 0.0 Kombisensor
2020-04-03 00:12:00 4.1 79.0 0.0 0.0 0.0 0.0 0.0 Kombisensor
2020-04-03 00:09:00 4.1 79.0 0.0 0.0 0.0 0.0 0.0 Kombisensor
2020-04-03 00:09:00 4.1 79.0 0.0 0.0 0.0 0.0 0.0 Kombisensor
2020-04-03 00:06:00 4.1 79.0 0.0 0.0 0.0 0.0 0.0 Kombisensor
2020-04-03 00:04:00 4.1 79.0 0.0 0.0 0.0 -0.1 0.0 Kombisensor
2020-04-03 00:03:00 4.2 79.0 0.0 0.0 0.0 -0.1 0.0 Kombisensor
2020-04-03 00:00:00 4.3 79.0 0.0 0.0 0.0 -0.1 0.0 Kombisensor